sensor_id;sensor_type;location;lat;lon;timestamp;P1;durP1;ratioP1;P2;durP2;ratioP2
25936;SDS011;13733;51.178;4.450;2023-04-24T00:00:01;29.88;;;17.95;;
25936;SDS011;13733;51.178;4.450;2023-04-24T00:02:38;29.85;;;17.67;;
25936;SDS011;13733;51.178;4.450;2023-04-24T00:05:04;36.88;;;18.48;;
25936;SDS011;13733;51.178;4.450;2023-04-24T00:07:31;31.75;;;18.33;;
25936;SDS011;13733;51.178;4.450;2023-04-24T00:09:57;29.58;;;18.02;;
25936;SDS011;13733;51.178;4.450;2023-04-24T00:12:23;29.20;;;18.77;;
25936;SDS011;13733;51.178;4.450;2023-04-24T00:14:50;28.95;;;18.50;;
25936;SDS011;13733;51.178;4.450;2023-04-24T00:17:16;33.00;;;17.60;;
25936;SDS011;13733;51.178;4.450;2023-04-24T00:19:45;26.23;;;18.27;;
25936;SDS011;13733;51.178;4.450;2023-04-24T00:22:11;28.90;;;18.15;;
25936;SDS011;13733;51.178;4.450;2023-04-24T00:24:38;29.25;;;18.85;;
25936;SDS011;13733;51.178;4.450;2023-04-24T00:27:04;30.45;;;19.70;;
25936;SDS011;13733;51.178;4.450;2023-04-24T00:29:30;29.58;;;19.42;;
25936;SDS011;13733;51.178;4.450;2023-04-24T00:31:56;28.27;;;19.73;;
25936;SDS011;13733;51.178;4.450;2023-04-24T00:34:22;30.63;;;20.52;;
25936;SDS011;13733;51.178;4.450;2023-04-24T00:36:48;31.60;;;21.80;;
25936;SDS011;13733;51.178;4.450;2023-04-24T00:39:20;29.27;;;20.25;;
25936;SDS011;13733;51.178;4.450;2023-04-24T00:41:46;29.90;;;20.25;;
25936;SDS011;13733;51.178;4.450;2023-04-24T00:44:13;36.45;;;21.10;;
25936;SDS011;13733;51.178;4.450;2023-04-24T00:46:40;36.22;;;22.20;;
25936;SDS011;13733;51.178;4.450;2023-04-24T00:49:06;30.23;;;20.63;;
25936;SDS011;13733;51.178;4.450;2023-04-24T00:51:32;30.63;;;20.85;;
25936;SDS011;13733;51.178;4.450;2023-04-24T00:54:01;27.55;;;19.75;;
25936;SDS011;13733;51.178;4.450;2023-04-24T00:56:27;27.58;;;20.88;;
25936;SDS011;13733;51.178;4.450;2023-04-24T00:58:53;30.20;;;20.92;;
25936;SDS011;13733;51.178;4.450;2023-04-24T01:01:20;26.08;;;19.98;;
25936;SDS011;13733;51.178;4.450;2023-04-24T01:03:47;30.67;;;21.50;;
25936;SDS011;13733;51.178;4.450;2023-04-24T01:06:16;31.42;;;20.88;;
25936;SDS011;13733;51.178;4.450;2023-04-24T01:08:43;28.10;;;19.27;;
25936;SDS011;13733;51.178;4.450;2023-04-24T01:11:10;28.17;;;18.50;;
25936;SDS011;13733;51.178;4.450;2023-04-24T01:13:37;30.60;;;19.17;;
25936;SDS011;13733;51.178;4.450;2023-04-24T01:16:03;27.30;;;18.92;;
25936;SDS011;13733;51.178;4.450;2023-04-24T01:18:29;27.55;;;18.60;;
25936;SDS011;13733;51.178;4.450;2023-04-24T01:20:58;31.23;;;18.40;;
25936;SDS011;13733;51.178;4.450;2023-04-24T01:23:29;31.60;;;18.23;;
25936;SDS011;13733;51.178;4.450;2023-04-24T01:25:55;26.27;;;18.33;;
25936;SDS011;13733;51.178;4.450;2023-04-24T01:28:21;30.13;;;18.52;;
25936;SDS011;13733;51.178;4.450;2023-04-24T01:30:48;27.90;;;18.48;;
25936;SDS011;13733;51.178;4.450;2023-04-24T01:33:14;25.27;;;16.30;;
25936;SDS011;13733;51.178;4.450;2023-04-24T01:35:39;18.88;;;15.35;;
25936;SDS011;13733;51.178;4.450;2023-04-24T01:38:05;25.77;;;15.27;;
25936;SDS011;13733;51.178;4.450;2023-04-24T01:40:32;20.15;;;15.07;;
25936;SDS011;13733;51.178;4.450;2023-04-24T01:42:58;24.67;;;14.52;;
25936;SDS011;13733;51.178;4.450;2023-04-24T01:45:24;17.85;;;12.43;;
25936;SDS011;13733;51.178;4.450;2023-04-24T01:47:50;18.55;;;12.40;;
25936;SDS011;13733;51.178;4.450;2023-04-24T01:50:16;17.35;;;11.50;;
25936;SDS011;13733;51.178;4.450;2023-04-24T01:52:42;16.60;;;11.40;;
25936;SDS011;13733;51.178;4.450;2023-04-24T01:55:08;18.13;;;11.60;;
25936;SDS011;13733;51.178;4.450;2023-04-24T01:57:35;20.45;;;11.63;;
25936;SDS011;13733;51.178;4.450;2023-04-24T02:00:01;19.40;;;11.95;;
25936;SDS011;13733;51.178;4.450;2023-04-24T02:02:41;16.23;;;11.63;;
25936;SDS011;13733;51.178;4.450;2023-04-24T02:05:07;21.48;;;12.05;;
25936;SDS011;13733;51.178;4.450;2023-04-24T02:07:35;21.70;;;12.23;;
25936;SDS011;13733;51.178;4.450;2023-04-24T02:10:01;15.32;;;11.27;;
25936;SDS011;13733;51.178;4.450;2023-04-24T02:12:29;17.83;;;12.32;;
25936;SDS011;13733;51.178;4.450;2023-04-24T02:14:55;21.20;;;11.50;;
25936;SDS011;13733;51.178;4.450;2023-04-24T02:17:21;19.10;;;12.35;;
25936;SDS011;13733;51.178;4.450;2023-04-24T02:19:47;21.58;;;11.85;;
25936;SDS011;13733;51.178;4.450;2023-04-24T02:22:13;21.35;;;12.50;;
25936;SDS011;13733;51.178;4.450;2023-04-24T02:24:39;18.73;;;11.88;;
25936;SDS011;13733;51.178;4.450;2023-04-24T02:27:05;15.85;;;12.32;;
25936;SDS011;13733;51.178;4.450;2023-04-24T02:29:31;14.95;;;11.63;;
25936;SDS011;13733;51.178;4.450;2023-04-24T02:31:57;15.48;;;12.73;;
25936;SDS011;13733;51.178;4.450;2023-04-24T02:34:23;18.15;;;14.30;;
25936;SDS011;13733;51.178;4.450;2023-04-24T02:36:49;14.80;;;13.23;;
25936;SDS011;13733;51.178;4.450;2023-04-24T02:39:15;18.05;;;14.02;;
25936;SDS011;13733;51.178;4.450;2023-04-24T02:41:43;16.33;;;14.55;;
25936;SDS011;13733;51.178;4.450;2023-04-24T02:44:09;19.95;;;14.82;;
25936;SDS011;13733;51.178;4.450;2023-04-24T02:46:35;16.02;;;13.43;;
25936;SDS011;13733;51.178;4.450;2023-04-24T02:49:01;14.85;;;12.90;;
25936;SDS011;13733;51.178;4.450;2023-04-24T02:51:28;16.05;;;12.73;;
25936;SDS011;13733;51.178;4.450;2023-04-24T02:53:54;16.65;;;13.55;;
25936;SDS011;13733;51.178;4.450;2023-04-24T02:56:19;13.00;;;11.70;;
25936;SDS011;13733;51.178;4.450;2023-04-24T02:58:45;12.70;;;11.15;;
25936;SDS011;13733;51.178;4.450;2023-04-24T03:01:11;13.13;;;11.68;;
25936;SDS011;13733;51.178;4.450;2023-04-24T03:03:37;14.20;;;12.70;;
25936;SDS011;13733;51.178;4.450;2023-04-24T03:06:04;16.05;;;13.43;;
25936;SDS011;13733;51.178;4.450;2023-04-24T03:08:31;16.40;;;14.05;;
25936;SDS011;13733;51.178;4.450;2023-04-24T03:10:57;17.23;;;14.18;;
25936;SDS011;13733;51.178;4.450;2023-04-24T03:13:23;17.40;;;14.13;;
25936;SDS011;13733;51.178;4.450;2023-04-24T03:15:49;16.92;;;13.77;;
25936;SDS011;13733;51.178;4.450;2023-04-24T03:18:14;17.30;;;14.13;;
25936;SDS011;13733;51.178;4.450;2023-04-24T03:20:41;19.08;;;15.40;;
25936;SDS011;13733;51.178;4.450;2023-04-24T03:23:08;18.23;;;15.20;;
25936;SDS011;13733;51.178;4.450;2023-04-24T03:25:35;18.52;;;16.55;;
25936;SDS011;13733;51.178;4.450;2023-04-24T03:28:02;21.27;;;16.88;;
25936;SDS011;13733;51.178;4.450;2023-04-24T03:30:38;19.67;;;16.63;;
25936;SDS011;13733;51.178;4.450;2023-04-24T03:33:05;19.20;;;17.15;;
25936;SDS011;13733;51.178;4.450;2023-04-24T03:35:35;20.75;;;18.27;;
25936;SDS011;13733;51.178;4.450;2023-04-24T03:38:05;19.38;;;17.13;;
25936;SDS011;13733;51.178;4.450;2023-04-24T03:40:52;22.83;;;16.50;;
25936;SDS011;13733;51.178;4.450;2023-04-24T03:46:00;23.10;;;15.63;;
25936;SDS011;13733;51.178;4.450;2023-04-24T03:48:27;18.52;;;14.68;;
25936;SDS011;13733;51.178;4.450;2023-04-24T03:50:53;20.02;;;13.80;;
25936;SDS011;13733;51.178;4.450;2023-04-24T03:53:19;28.20;;;13.32;;
25936;SDS011;13733;51.178;4.450;2023-04-24T03:55:45;18.77;;;11.52;;
25936;SDS011;13733;51.178;4.450;2023-04-24T03:58:12;14.52;;;10.00;;
25936;SDS011;13733;51.178;4.450;2023-04-24T04:00:40;17.13;;;10.35;;
25936;SDS011;13733;51.178;4.450;2023-04-24T04:03:28;14.20;;;8.50;;
25936;SDS011;13733;51.178;4.450;2023-04-24T04:05:55;16.45;;;9.18;;
25936;SDS011;13733;51.178;4.450;2023-04-24T04:08:21;14.73;;;9.57;;
25936;SDS011;13733;51.178;4.450;2023-04-24T04:10:47;14.82;;;9.98;;
25936;SDS011;13733;51.178;4.450;2023-04-24T04:13:13;18.15;;;10.10;;
25936;SDS011;13733;51.178;4.450;2023-04-24T04:15:39;15.65;;;9.27;;
25936;SDS011;13733;51.178;4.450;2023-04-24T04:18:05;13.85;;;9.07;;
25936;SDS011;13733;51.178;4.450;2023-04-24T04:20:32;19.38;;;11.73;;
25936;SDS011;13733;51.178;4.450;2023-04-24T04:22:57;19.92;;;12.38;;
25936;SDS011;13733;51.178;4.450;2023-04-24T04:25:35;22.00;;;13.00;;
25936;SDS011;13733;51.178;4.450;2023-04-24T04:28:01;21.80;;;12.98;;
25936;SDS011;13733;51.178;4.450;2023-04-24T04:30:27;21.13;;;13.40;;
25936;SDS011;13733;51.178;4.450;2023-04-24T04:33:00;22.63;;;11.90;;
25936;SDS011;13733;51.178;4.450;2023-04-24T04:35:28;16.55;;;11.40;;
25936;SDS011;13733;51.178;4.450;2023-04-24T04:37:54;24.27;;;12.88;;
25936;SDS011;13733;51.178;4.450;2023-04-24T04:40:53;20.20;;;12.18;;
25936;SDS011;13733;51.178;4.450;2023-04-24T04:43:21;20.33;;;11.70;;
25936;SDS011;13733;51.178;4.450;2023-04-24T04:45:51;22.30;;;15.20;;
25936;SDS011;13733;51.178;4.450;2023-04-24T04:48:29;32.78;;;19.95;;
25936;SDS011;13733;51.178;4.450;2023-04-24T04:50:58;28.35;;;19.73;;
25936;SDS011;13733;51.178;4.450;2023-04-24T04:53:25;26.15;;;18.70;;
25936;SDS011;13733;51.178;4.450;2023-04-24T04:55:51;28.33;;;17.10;;
25936;SDS011;13733;51.178;4.450;2023-04-24T04:58:18;30.77;;;18.33;;
25936;SDS011;13733;51.178;4.450;2023-04-24T05:00:45;33.42;;;17.27;;
25936;SDS011;13733;51.178;4.450;2023-04-24T05:03:20;36.15;;;19.88;;
25936;SDS011;13733;51.178;4.450;2023-04-24T05:05:48;30.50;;;18.27;;
25936;SDS011;13733;51.178;4.450;2023-04-24T05:08:16;28.27;;;16.95;;
25936;SDS011;13733;51.178;4.450;2023-04-24T05:10:42;33.20;;;18.48;;
25936;SDS011;13733;51.178;4.450;2023-04-24T05:13:08;30.40;;;17.67;;
25936;SDS011;13733;51.178;4.450;2023-04-24T05:15:34;36.50;;;17.83;;
25936;SDS011;13733;51.178;4.450;2023-04-24T05:18:00;35.83;;;17.38;;
25936;SDS011;13733;51.178;4.450;2023-04-24T05:20:27;28.65;;;15.38;;
25936;SDS011;13733;51.178;4.450;2023-04-24T05:22:53;28.20;;;16.77;;
25936;SDS011;13733;51.178;4.450;2023-04-24T05:25:21;24.05;;;15.23;;
25936;SDS011;13733;51.178;4.450;2023-04-24T05:28:02;31.50;;;15.80;;
25936;SDS011;13733;51.178;4.450;2023-04-24T05:30:29;30.80;;;15.10;;
25936;SDS011;13733;51.178;4.450;2023-04-24T05:32:56;21.17;;;12.05;;
25936;SDS011;13733;51.178;4.450;2023-04-24T05:35:22;21.88;;;11.63;;
25936;SDS011;13733;51.178;4.450;2023-04-24T05:37:48;19.02;;;10.50;;
25936;SDS011;13733;51.178;4.450;2023-04-24T05:40:15;18.10;;;10.15;;
25936;SDS011;13733;51.178;4.450;2023-04-24T05:42:42;17.15;;;10.27;;
25936;SDS011;13733;51.178;4.450;2023-04-24T05:45:08;21.02;;;10.32;;
25936;SDS011;13733;51.178;4.450;2023-04-24T05:47:36;18.70;;;11.23;;
25936;SDS011;13733;51.178;4.450;2023-04-24T05:50:02;21.42;;;11.63;;
25936;SDS011;13733;51.178;4.450;2023-04-24T05:52:29;20.45;;;11.80;;
25936;SDS011;13733;51.178;4.450;2023-04-24T05:54:55;25.30;;;13.40;;
25936;SDS011;13733;51.178;4.450;2023-04-24T05:57:24;22.52;;;13.00;;
25936;SDS011;13733;51.178;4.450;2023-04-24T05:59:59;25.73;;;13.23;;
25936;SDS011;13733;51.178;4.450;2023-04-24T06:02:25;23.20;;;14.07;;
25936;SDS011;13733;51.178;4.450;2023-04-24T06:04:51;26.40;;;13.63;;
25936;SDS011;13733;51.178;4.450;2023-04-24T06:07:17;30.98;;;14.70;;
25936;SDS011;13733;51.178;4.450;2023-04-24T06:09:44;26.98;;;15.02;;
25936;SDS011;13733;51.178;4.450;2023-04-24T06:12:10;25.55;;;14.50;;
25936;SDS011;13733;51.178;4.450;2023-04-24T06:15:02;39.85;;;19.70;;
25936;SDS011;13733;51.178;4.450;2023-04-24T06:17:48;40.53;;;24.52;;
25936;SDS011;13733;51.178;4.450;2023-04-24T06:20:15;46.70;;;27.30;;
25936;SDS011;13733;51.178;4.450;2023-04-24T06:22:41;41.67;;;26.63;;
25936;SDS011;13733;51.178;4.450;2023-04-24T06:25:09;36.70;;;23.98;;
25936;SDS011;13733;51.178;4.450;2023-04-24T06:27:35;42.53;;;22.88;;
25936;SDS011;13733;51.178;4.450;2023-04-24T06:30:01;36.33;;;21.48;;
25936;SDS011;13733;51.178;4.450;2023-04-24T06:32:27;34.13;;;21.70;;
25936;SDS011;13733;51.178;4.450;2023-04-24T06:34:53;41.22;;;22.10;;
25936;SDS011;13733;51.178;4.450;2023-04-24T06:37:21;36.22;;;22.67;;
25936;SDS011;13733;51.178;4.450;2023-04-24T06:39:48;36.30;;;21.88;;
25936;SDS011;13733;51.178;4.450;2023-04-24T06:42:14;43.05;;;25.98;;
25936;SDS011;13733;51.178;4.450;2023-04-24T06:44:42;42.35;;;25.70;;
25936;SDS011;13733;51.178;4.450;2023-04-24T06:47:08;41.00;;;23.77;;
25936;SDS011;13733;51.178;4.450;2023-04-24T06:49:35;30.20;;;19.73;;
25936;SDS011;13733;51.178;4.450;2023-04-24T06:52:02;35.13;;;20.25;;
25936;SDS011;13733;51.178;4.450;2023-04-24T06:54:28;33.03;;;19.63;;
25936;SDS011;13733;51.178;4.450;2023-04-24T06:56:54;37.00;;;21.00;;
25936;SDS011;13733;51.178;4.450;2023-04-24T06:59:25;34.30;;;20.05;;
25936;SDS011;13733;51.178;4.450;2023-04-24T07:01:50;37.75;;;19.67;;
25936;SDS011;13733;51.178;4.450;2023-04-24T07:04:16;43.03;;;20.50;;
25936;SDS011;13733;51.178;4.450;2023-04-24T07:06:43;28.33;;;15.38;;
25936;SDS011;13733;51.178;4.450;2023-04-24T07:09:12;25.40;;;12.55;;
25936;SDS011;13733;51.178;4.450;2023-04-24T07:11:44;22.73;;;10.48;;
25936;SDS011;13733;51.178;4.450;2023-04-24T07:14:10;23.70;;;9.68;;
25936;SDS011;13733;51.178;4.450;2023-04-24T07:16:37;27.63;;;8.98;;
25936;SDS011;13733;51.178;4.450;2023-04-24T07:19:03;22.92;;;7.57;;
25936;SDS011;13733;51.178;4.450;2023-04-24T07:21:29;19.67;;;7.82;;
25936;SDS011;13733;51.178;4.450;2023-04-24T07:23:57;20.25;;;7.93;;
25936;SDS011;13733;51.178;4.450;2023-04-24T07:26:25;27.77;;;8.60;;
25936;SDS011;13733;51.178;4.450;2023-04-24T07:28:52;22.88;;;8.38;;
25936;SDS011;13733;51.178;4.450;2023-04-24T07:31:18;25.92;;;8.50;;
25936;SDS011;13733;51.178;4.450;2023-04-24T07:33:43;16.83;;;6.95;;
25936;SDS011;13733;51.178;4.450;2023-04-24T07:36:09;16.95;;;6.78;;
25936;SDS011;13733;51.178;4.450;2023-04-24T07:38:41;20.50;;;7.13;;
25936;SDS011;13733;51.178;4.450;2023-04-24T07:41:07;16.58;;;5.47;;
25936;SDS011;13733;51.178;4.450;2023-04-24T07:43:33;19.42;;;5.50;;
25936;SDS011;13733;51.178;4.450;2023-04-24T07:46:00;16.52;;;6.00;;
25936;SDS011;13733;51.178;4.450;2023-04-24T07:48:26;13.95;;;5.28;;
25936;SDS011;13733;51.178;4.450;2023-04-24T07:50:52;15.32;;;4.85;;
25936;SDS011;13733;51.178;4.450;2023-04-24T07:53:18;16.38;;;4.95;;
25936;SDS011;13733;51.178;4.450;2023-04-24T07:55:45;17.33;;;5.10;;
25936;SDS011;13733;51.178;4.450;2023-04-24T07:58:11;18.92;;;4.95;;
25936;SDS011;13733;51.178;4.450;2023-04-24T08:00:36;18.67;;;5.32;;
25936;SDS011;13733;51.178;4.450;2023-04-24T08:03:02;20.15;;;4.82;;
25936;SDS011;13733;51.178;4.450;2023-04-24T08:05:28;17.83;;;4.72;;
25936;SDS011;13733;51.178;4.450;2023-04-24T08:07:54;16.98;;;4.95;;
25936;SDS011;13733;51.178;4.450;2023-04-24T08:10:21;18.38;;;5.25;;
25936;SDS011;13733;51.178;4.450;2023-04-24T08:12:47;20.73;;;5.63;;
25936;SDS011;13733;51.178;4.450;2023-04-24T08:15:13;17.95;;;5.60;;
25936;SDS011;13733;51.178;4.450;2023-04-24T08:17:39;26.42;;;6.38;;
25936;SDS011;13733;51.178;4.450;2023-04-24T08:20:06;20.25;;;6.90;;
25936;SDS011;13733;51.178;4.450;2023-04-24T08:22:35;21.37;;;8.03;;
25936;SDS011;13733;51.178;4.450;2023-04-24T08:25:01;22.70;;;8.32;;
25936;SDS011;13733;51.178;4.450;2023-04-24T08:27:27;25.08;;;9.05;;
25936;SDS011;13733;51.178;4.450;2023-04-24T08:29:53;28.30;;;9.00;;
25936;SDS011;13733;51.178;4.450;2023-04-24T08:32:19;29.13;;;8.65;;
25936;SDS011;13733;51.178;4.450;2023-04-24T08:34:45;25.08;;;9.35;;
25936;SDS011;13733;51.178;4.450;2023-04-24T08:37:11;29.23;;;9.65;;
25936;SDS011;13733;51.178;4.450;2023-04-24T08:39:37;32.70;;;8.75;;
25936;SDS011;13733;51.178;4.450;2023-04-24T08:42:04;29.83;;;8.27;;
25936;SDS011;13733;51.178;4.450;2023-04-24T08:44:33;28.52;;;7.90;;
25936;SDS011;13733;51.178;4.450;2023-04-24T08:47:01;19.73;;;7.07;;
25936;SDS011;13733;51.178;4.450;2023-04-24T08:49:28;17.00;;;5.38;;
25936;SDS011;13733;51.178;4.450;2023-04-24T08:51:54;22.23;;;6.65;;
25936;SDS011;13733;51.178;4.450;2023-04-24T08:54:20;20.67;;;5.68;;
25936;SDS011;13733;51.178;4.450;2023-04-24T08:56:47;19.40;;;4.95;;
25936;SDS011;13733;51.178;4.450;2023-04-24T08:59:14;21.08;;;5.32;;
25936;SDS011;13733;51.178;4.450;2023-04-24T09:01:40;16.00;;;4.97;;
25936;SDS011;13733;51.178;4.450;2023-04-24T09:04:07;16.63;;;4.72;;
25936;SDS011;13733;51.178;4.450;2023-04-24T09:06:38;20.50;;;5.63;;
25936;SDS011;13733;51.178;4.450;2023-04-24T09:09:04;12.75;;;4.57;;
25936;SDS011;13733;51.178;4.450;2023-04-24T09:11:31;18.20;;;4.50;;
25936;SDS011;13733;51.178;4.450;2023-04-24T09:14:00;20.38;;;4.72;;
25936;SDS011;13733;51.178;4.450;2023-04-24T09:16:26;19.58;;;5.20;;
25936;SDS011;13733;51.178;4.450;2023-04-24T09:18:52;20.05;;;5.80;;
25936;SDS011;13733;51.178;4.450;2023-04-24T09:21:20;17.75;;;5.45;;
25936;SDS011;13733;51.178;4.450;2023-04-24T09:23:47;18.50;;;6.07;;
25936;SDS011;13733;51.178;4.450;2023-04-24T09:26:24;22.65;;;7.07;;
25936;SDS011;13733;51.178;4.450;2023-04-24T09:28:50;13.85;;;5.88;;
25936;SDS011;13733;51.178;4.450;2023-04-24T09:31:17;19.63;;;6.38;;
25936;SDS011;13733;51.178;4.450;2023-04-24T09:36:46;15.73;;;5.23;;
25936;SDS011;13733;51.178;4.450;2023-04-24T09:39:12;23.52;;;6.47;;
25936;SDS011;13733;51.178;4.450;2023-04-24T09:41:48;18.67;;;5.28;;
25936;SDS011;13733;51.178;4.450;2023-04-24T09:44:16;18.63;;;5.22;;
25936;SDS011;13733;51.178;4.450;2023-04-24T09:46:44;23.23;;;5.88;;
25936;SDS011;13733;51.178;4.450;2023-04-24T09:51:41;15.95;;;4.95;;
25936;SDS011;13733;51.178;4.450;2023-04-24T09:54:17;14.88;;;4.45;;
25936;SDS011;13733;51.178;4.450;2023-04-24T09:56:46;11.93;;;4.50;;
25936;SDS011;13733;51.178;4.450;2023-04-24T09:59:16;17.45;;;5.18;;
25936;SDS011;13733;51.178;4.450;2023-04-24T10:01:43;18.80;;;5.07;;
25936;SDS011;13733;51.178;4.450;2023-04-24T10:04:23;11.85;;;4.20;;
25936;SDS011;13733;51.178;4.450;2023-04-24T10:06:51;9.82;;;3.15;;
25936;SDS011;13733;51.178;4.450;2023-04-24T10:09:22;8.10;;;2.88;;
25936;SDS011;13733;51.178;4.450;2023-04-24T10:11:50;10.45;;;3.42;;
25936;SDS011;13733;51.178;4.450;2023-04-24T10:14:19;7.38;;;2.42;;
25936;SDS011;13733;51.178;4.450;2023-04-24T10:16:47;6.53;;;2.35;;
25936;SDS011;13733;51.178;4.450;2023-04-24T10:19:13;7.68;;;2.55;;
25936;SDS011;13733;51.178;4.450;2023-04-24T10:21:41;6.18;;;2.78;;
25936;SDS011;13733;51.178;4.450;2023-04-24T10:24:14;4.78;;;2.00;;
25936;SDS011;13733;51.178;4.450;2023-04-24T10:26:42;9.75;;;2.75;;
25936;SDS011;13733;51.178;4.450;2023-04-24T10:29:10;8.93;;;2.72;;
25936;SDS011;13733;51.178;4.450;2023-04-24T10:31:37;8.30;;;2.50;;
25936;SDS011;13733;51.178;4.450;2023-04-24T10:34:04;7.80;;;2.65;;
25936;SDS011;13733;51.178;4.450;2023-04-24T10:36:32;8.10;;;2.72;;
25936;SDS011;13733;51.178;4.450;2023-04-24T10:38:59;6.43;;;2.50;;
25936;SDS011;13733;51.178;4.450;2023-04-24T10:41:30;6.53;;;2.83;;
25936;SDS011;13733;51.178;4.450;2023-04-24T10:44:09;9.05;;;3.35;;
25936;SDS011;13733;51.178;4.450;2023-04-24T10:46:47;7.82;;;2.33;;
25936;SDS011;13733;51.178;4.450;2023-04-24T10:49:19;7.70;;;2.65;;
25936;SDS011;13733;51.178;4.450;2023-04-24T10:51:59;6.53;;;2.53;;
25936;SDS011;13733;51.178;4.450;2023-04-24T10:57:25;9.38;;;2.92;;
25936;SDS011;13733;51.178;4.450;2023-04-24T10:59:51;9.73;;;3.10;;
25936;SDS011;13733;51.178;4.450;2023-04-24T11:02:39;7.43;;;2.95;;
25936;SDS011;13733;51.178;4.450;2023-04-24T11:05:14;11.65;;;3.20;;
25936;SDS011;13733;51.178;4.450;2023-04-24T11:10:56;5.93;;;2.65;;
25936;SDS011;13733;51.178;4.450;2023-04-24T11:13:23;4.95;;;2.05;;
25936;SDS011;13733;51.178;4.450;2023-04-24T11:18:41;7.15;;;2.20;;
25936;SDS011;13733;51.178;4.450;2023-04-24T11:21:18;7.65;;;1.75;;
25936;SDS011;13733;51.178;4.450;2023-04-24T11:23:44;5.28;;;1.90;;
25936;SDS011;13733;51.178;4.450;2023-04-24T11:26:32;8.23;;;2.20;;
25936;SDS011;13733;51.178;4.450;2023-04-24T11:29:07;9.23;;;1.80;;
25936;SDS011;13733;51.178;4.450;2023-04-24T11:31:33;6.25;;;1.90;;
25936;SDS011;13733;51.178;4.450;2023-04-24T11:34:11;4.50;;;1.70;;
25936;SDS011;13733;51.178;4.450;2023-04-24T11:36:39;5.70;;;1.65;;
25936;SDS011;13733;51.178;4.450;2023-04-24T11:39:08;5.30;;;2.00;;
25936;SDS011;13733;51.178;4.450;2023-04-24T11:41:35;4.75;;;1.63;;
25936;SDS011;13733;51.178;4.450;2023-04-24T11:44:01;5.60;;;1.77;;
25936;SDS011;13733;51.178;4.450;2023-04-24T11:46:29;9.80;;;2.10;;
25936;SDS011;13733;51.178;4.450;2023-04-24T11:48:56;4.72;;;1.70;;
25936;SDS011;13733;51.178;4.450;2023-04-24T11:51:23;9.63;;;2.22;;
25936;SDS011;13733;51.178;4.450;2023-04-24T11:53:52;6.07;;;2.03;;
25936;SDS011;13733;51.178;4.450;2023-04-24T11:56:19;6.70;;;2.40;;
25936;SDS011;13733;51.178;4.450;2023-04-24T11:58:47;10.98;;;1.73;;
25936;SDS011;13733;51.178;4.450;2023-04-24T12:01:13;7.85;;;2.20;;
25936;SDS011;13733;51.178;4.450;2023-04-24T12:03:39;14.10;;;2.10;;
25936;SDS011;13733;51.178;4.450;2023-04-24T12:06:08;4.93;;;2.33;;
25936;SDS011;13733;51.178;4.450;2023-04-24T12:08:36;5.22;;;2.20;;
25936;SDS011;13733;51.178;4.450;2023-04-24T12:11:03;6.38;;;2.33;;
25936;SDS011;13733;51.178;4.450;2023-04-24T12:13:30;9.70;;;2.22;;
25936;SDS011;13733;51.178;4.450;2023-04-24T12:15:56;4.10;;;1.88;;
25936;SDS011;13733;51.178;4.450;2023-04-24T12:18:23;6.18;;;2.22;;
25936;SDS011;13733;51.178;4.450;2023-04-24T12:20:49;7.70;;;2.35;;
25936;SDS011;13733;51.178;4.450;2023-04-24T12:23:16;9.77;;;2.20;;
25936;SDS011;13733;51.178;4.450;2023-04-24T12:25:42;6.60;;;2.30;;
25936;SDS011;13733;51.178;4.450;2023-04-24T12:28:09;7.95;;;2.30;;
25936;SDS011;13733;51.178;4.450;2023-04-24T12:30:48;8.40;;;2.38;;
25936;SDS011;13733;51.178;4.450;2023-04-24T12:33:18;8.55;;;2.70;;
25936;SDS011;13733;51.178;4.450;2023-04-24T12:35:45;7.97;;;2.27;;
25936;SDS011;13733;51.178;4.450;2023-04-24T12:38:11;10.95;;;2.33;;
25936;SDS011;13733;51.178;4.450;2023-04-24T12:40:39;7.55;;;2.25;;
25936;SDS011;13733;51.178;4.450;2023-04-24T12:43:16;7.60;;;2.10;;
25936;SDS011;13733;51.178;4.450;2023-04-24T12:45:43;7.47;;;2.45;;
25936;SDS011;13733;51.178;4.450;2023-04-24T12:48:10;10.45;;;2.95;;
25936;SDS011;13733;51.178;4.450;2023-04-24T12:50:36;8.63;;;2.60;;
25936;SDS011;13733;51.178;4.450;2023-04-24T12:53:03;9.43;;;2.47;;
25936;SDS011;13733;51.178;4.450;2023-04-24T12:55:29;8.48;;;2.47;;
25936;SDS011;13733;51.178;4.450;2023-04-24T12:57:54;10.63;;;2.90;;
25936;SDS011;13733;51.178;4.450;2023-04-24T13:00:21;9.52;;;2.83;;
25936;SDS011;13733;51.178;4.450;2023-04-24T13:02:47;8.27;;;2.22;;
25936;SDS011;13733;51.178;4.450;2023-04-24T13:05:13;6.30;;;2.65;;
25936;SDS011;13733;51.178;4.450;2023-04-24T13:07:39;6.60;;;2.25;;
25936;SDS011;13733;51.178;4.450;2023-04-24T13:10:05;9.57;;;2.53;;
25936;SDS011;13733;51.178;4.450;2023-04-24T13:12:31;5.82;;;2.50;;
25936;SDS011;13733;51.178;4.450;2023-04-24T13:14:58;6.40;;;2.35;;
25936;SDS011;13733;51.178;4.450;2023-04-24T13:17:24;12.43;;;2.97;;
25936;SDS011;13733;51.178;4.450;2023-04-24T13:19:50;5.50;;;1.90;;
25936;SDS011;13733;51.178;4.450;2023-04-24T13:22:17;5.82;;;1.80;;
25936;SDS011;13733;51.178;4.450;2023-04-24T13:24:46;4.43;;;1.77;;
25936;SDS011;13733;51.178;4.450;2023-04-24T13:27:14;4.13;;;1.90;;
25936;SDS011;13733;51.178;4.450;2023-04-24T13:29:40;5.93;;;1.90;;
25936;SDS011;13733;51.178;4.450;2023-04-24T13:32:06;6.97;;;2.15;;
25936;SDS011;13733;51.178;4.450;2023-04-24T13:34:33;8.85;;;1.90;;
25936;SDS011;13733;51.178;4.450;2023-04-24T13:37:00;6.13;;;1.67;;
25936;SDS011;13733;51.178;4.450;2023-04-24T13:39:26;3.22;;;1.52;;
25936;SDS011;13733;51.178;4.450;2023-04-24T13:41:52;5.18;;;1.65;;
25936;SDS011;13733;51.178;4.450;2023-04-24T13:44:19;5.15;;;1.67;;
25936;SDS011;13733;51.178;4.450;2023-04-24T13:46:46;5.03;;;1.55;;
25936;SDS011;13733;51.178;4.450;2023-04-24T13:49:13;6.40;;;1.63;;
25936;SDS011;13733;51.178;4.450;2023-04-24T13:51:39;4.38;;;1.67;;
25936;SDS011;13733;51.178;4.450;2023-04-24T13:54:05;5.28;;;1.70;;
25936;SDS011;13733;51.178;4.450;2023-04-24T13:56:32;5.28;;;1.40;;
25936;SDS011;13733;51.178;4.450;2023-04-24T13:58:58;4.10;;;1.40;;
25936;SDS011;13733;51.178;4.450;2023-04-24T14:01:24;6.00;;;1.55;;
25936;SDS011;13733;51.178;4.450;2023-04-24T14:03:50;3.50;;;1.45;;
25936;SDS011;13733;51.178;4.450;2023-04-24T14:06:20;5.70;;;1.60;;
25936;SDS011;13733;51.178;4.450;2023-04-24T14:08:46;3.83;;;1.65;;
25936;SDS011;13733;51.178;4.450;2023-04-24T14:11:12;3.08;;;1.30;;
25936;SDS011;13733;51.178;4.450;2023-04-24T14:13:38;3.80;;;1.60;;
25936;SDS011;13733;51.178;4.450;2023-04-24T14:16:06;4.35;;;1.58;;
25936;SDS011;13733;51.178;4.450;2023-04-24T14:18:32;4.55;;;1.50;;
25936;SDS011;13733;51.178;4.450;2023-04-24T14:20:59;3.13;;;1.48;;
25936;SDS011;13733;51.178;4.450;2023-04-24T14:23:26;5.22;;;1.55;;
25936;SDS011;13733;51.178;4.450;2023-04-24T14:25:52;6.45;;;2.00;;
25936;SDS011;13733;51.178;4.450;2023-04-24T14:28:21;4.18;;;1.80;;
25936;SDS011;13733;51.178;4.450;2023-04-24T14:30:47;4.78;;;2.00;;
25936;SDS011;13733;51.178;4.450;2023-04-24T14:33:13;4.88;;;1.60;;
25936;SDS011;13733;51.178;4.450;2023-04-24T14:35:40;4.07;;;1.67;;
25936;SDS011;13733;51.178;4.450;2023-04-24T14:38:09;3.55;;;1.60;;
25936;SDS011;13733;51.178;4.450;2023-04-24T14:40:35;3.92;;;1.40;;
25936;SDS011;13733;51.178;4.450;2023-04-24T14:43:02;3.53;;;1.30;;
25936;SDS011;13733;51.178;4.450;2023-04-24T14:45:28;5.55;;;1.67;;
25936;SDS011;13733;51.178;4.450;2023-04-24T14:47:54;4.93;;;1.63;;
25936;SDS011;13733;51.178;4.450;2023-04-24T14:50:20;6.97;;;1.80;;
25936;SDS011;13733;51.178;4.450;2023-04-24T14:52:46;6.45;;;1.40;;